createdAt,value
2023-01-30T00:01:41.670Z,-1.78
2023-01-30T00:04:08.352Z,-1.80
2023-01-30T00:06:34.934Z,-1.76
2023-01-30T00:09:01.634Z,-1.73
2023-01-30T00:11:30.135Z,-1.87
2023-01-30T00:13:57.110Z,-1.82
2023-01-30T00:16:23.916Z,-1.88
2023-01-30T00:18:50.892Z,-1.95
2023-01-30T00:21:18.009Z,-2.01
2023-01-30T00:23:45.044Z,-1.96
2023-01-30T00:26:12.245Z,-1.93
2023-01-30T00:28:39.803Z,-1.98
2023-01-30T00:31:07.304Z,-1.98
2023-01-30T00:33:34.011Z,-2.03
2023-01-30T00:36:02.561Z,-2.11
2023-01-30T00:38:29.317Z,-2.04
2023-01-30T00:40:56.217Z,-1.97
2023-01-30T00:43:41.419Z,-2.01
2023-01-30T00:46:41.668Z,-2.05
2023-01-30T00:49:08.324Z,-2.08
2023-01-30T00:51:34.905Z,-2.17
2023-01-30T00:54:01.479Z,-2.13
2023-01-30T00:56:28.175Z,-2.08
2023-01-30T00:58:54.909Z,-2.05
2023-01-30T01:01:21.496Z,-2.08
2023-01-30T01:03:48.289Z,-2.01
2023-01-30T01:06:14.899Z,-1.95
2023-01-30T01:08:41.517Z,-1.95
2023-01-30T01:11:08.182Z,-1.96
2023-01-30T01:13:35.164Z,-2.06
2023-01-30T01:16:01.958Z,-2.00
2023-01-30T01:18:28.642Z,-1.98
2023-01-30T01:20:55.306Z,-1.95
2023-01-30T01:23:22.009Z,-1.91
2023-01-30T01:25:48.612Z,-1.95
2023-01-30T01:28:15.939Z,-1.92
2023-01-30T01:30:42.577Z,-1.84
2023-01-30T01:33:09.215Z,-1.76
2023-01-30T01:35:40.873Z,-1.78
2023-01-30T01:38:07.533Z,-1.78
2023-01-30T01:40:52.780Z,-1.73
2023-01-30T01:43:22.205Z,-1.71
2023-01-30T01:45:52.310Z,-1.67
2023-01-30T01:48:45.068Z,-1.68
2023-01-30T01:51:18.132Z,-1.68
2023-01-30T01:53:56.909Z,-1.66
2023-01-30T01:56:24.419Z,-1.62
2023-01-30T01:58:56.076Z,-1.62
2023-01-30T02:01:23.144Z,-1.56
2023-01-30T02:03:56.763Z,-1.54
2023-01-30T02:06:23.558Z,-1.52
2023-01-30T02:08:54.758Z,-1.52
2023-01-30T02:11:46.376Z,-1.47
2023-01-30T02:14:14.554Z,-1.51
2023-01-30T02:16:42.953Z,-1.46
2023-01-30T02:19:22.730Z,-1.42
2023-01-30T02:22:12.345Z,-1.43
2023-01-30T02:25:06.476Z,-1.43
2023-01-30T02:27:42.154Z,-1.38
2023-01-30T02:30:11.460Z,-1.35
2023-01-30T02:32:43.932Z,-1.37
2023-01-30T02:35:28.472Z,-1.32
2023-01-30T02:38:07.234Z,-1.32
2023-01-30T02:40:57.513Z,-1.30
2023-01-30T02:43:24.107Z,-1.29
2023-01-30T02:45:56.472Z,-1.25
2023-01-30T02:48:30.200Z,-1.21
2023-01-30T02:51:05.664Z,-1.14
2023-01-30T02:53:36.777Z,-1.07
2023-01-30T02:56:03.637Z,-1.09
2023-01-30T02:58:44.508Z,-1.02
2023-01-30T03:01:33.064Z,-1.01
2023-01-30T03:04:27.769Z,-0.96
2023-01-30T03:07:12.637Z,-0.91
2023-01-30T03:09:51.146Z,-0.88
2023-01-30T03:12:46.831Z,-0.87
2023-01-30T03:15:23.360Z,-0.88
2023-01-30T03:17:50.251Z,-0.84
2023-01-30T03:20:20.027Z,-0.84
2023-01-30T03:22:47.293Z,-0.82
2023-01-30T03:25:19.520Z,-0.81
2023-01-30T03:27:46.752Z,-0.77
2023-01-30T03:30:13.677Z,-0.74
2023-01-30T03:32:40.302Z,-0.73
2023-01-30T03:35:07.195Z,-0.70
2023-01-30T03:37:33.992Z,-0.72
2023-01-30T03:40:00.824Z,-0.72
2023-01-30T03:42:27.543Z,-0.63
2023-01-30T03:44:54.167Z,-0.65
2023-01-30T03:47:20.766Z,-0.62
2023-01-30T03:49:47.442Z,-0.61
2023-01-30T03:52:14.101Z,-0.55
2023-01-30T03:54:40.698Z,-0.57
2023-01-30T03:57:07.302Z,-0.58
2023-01-30T03:59:33.947Z,-0.53
2023-01-30T04:02:00.606Z,-0.51
2023-01-30T04:04:27.230Z,-0.50
2023-01-30T04:06:53.808Z,-0.49
2023-01-30T04:09:20.495Z,-0.47
2023-01-30T04:11:47.135Z,-0.46
2023-01-30T04:14:13.789Z,-0.48
2023-01-30T04:16:40.703Z,-0.45
2023-01-30T04:19:07.332Z,-0.43
2023-01-30T04:21:34.285Z,-0.43
2023-01-30T04:24:00.948Z,-0.39
2023-01-30T04:26:27.594Z,-0.36
2023-01-30T04:28:54.352Z,-0.34
2023-01-30T04:31:21.001Z,-0.33
2023-01-30T04:33:47.632Z,-0.29
2023-01-30T04:36:14.488Z,-0.30
2023-01-30T04:38:41.238Z,-0.27
2023-01-30T04:41:08.042Z,-0.28
2023-01-30T04:43:34.731Z,-0.27
2023-01-30T04:46:01.385Z,-0.26
2023-01-30T04:48:28.338Z,-0.26
2023-01-30T04:50:56.606Z,-0.23
2023-01-30T04:53:24.942Z,-0.22
2023-01-30T04:55:51.677Z,-0.18
2023-01-30T04:58:19.597Z,-0.19
2023-01-30T05:00:47.458Z,-0.16
2023-01-30T05:03:15.200Z,-0.16
2023-01-30T05:05:42.041Z,-0.14
2023-01-30T05:08:08.909Z,-0.12
2023-01-30T05:10:35.666Z,-0.12
2023-01-30T05:13:05.964Z,-0.14
2023-01-30T05:15:33.633Z,-0.13
2023-01-30T05:18:01.021Z,-0.11
2023-01-30T05:20:27.662Z,-0.11
2023-01-30T05:22:54.316Z,-0.08
2023-01-30T05:25:21.165Z,-0.11
2023-01-30T05:27:47.861Z,-0.12
2023-01-30T05:30:14.593Z,-0.12
2023-01-30T05:32:41.202Z,-0.16
2023-01-30T05:35:08.192Z,-0.10
2023-01-30T05:37:34.761Z,-0.09
2023-01-30T05:40:01.379Z,-0.10
2023-01-30T05:42:27.976Z,-0.09
2023-01-30T05:44:54.631Z,-0.05
2023-01-30T05:47:21.247Z,-0.06
2023-01-30T05:49:47.889Z,0.03
2023-01-30T05:52:14.511Z,0.02
2023-01-30T05:54:41.100Z,0.03
2023-01-30T05:57:07.733Z,-0.01
2023-01-30T05:59:34.359Z,0.02
2023-01-30T06:02:00.991Z,0.03
2023-01-30T06:04:27.604Z,0.11
2023-01-30T06:06:54.216Z,0.11
2023-01-30T06:09:20.854Z,0.10
2023-01-30T06:11:47.523Z,0.09
2023-01-30T06:14:14.161Z,0.13
2023-01-30T06:16:40.876Z,0.14
2023-01-30T06:19:08.413Z,0.16
2023-01-30T06:21:35.065Z,0.18
2023-01-30T06:24:02.374Z,0.20
2023-01-30T06:26:29.193Z,0.17
2023-01-30T06:28:55.854Z,0.20
2023-01-30T06:31:22.616Z,0.20
2023-01-30T06:33:49.513Z,0.25
2023-01-30T06:36:16.152Z,0.26
2023-01-30T06:38:42.808Z,0.21
2023-01-30T06:41:09.673Z,0.29
2023-01-30T06:43:36.301Z,0.28
2023-01-30T06:46:03.074Z,0.26
2023-01-30T06:48:29.696Z,0.24
2023-01-30T06:50:56.406Z,0.26
2023-01-30T06:53:25.419Z,0.16
2023-01-30T06:55:52.039Z,0.17
2023-01-30T06:58:18.877Z,0.18
2023-01-30T07:00:45.528Z,0.17
2023-01-30T07:03:13.896Z,0.17
2023-01-30T07:05:41.658Z,0.18
2023-01-30T07:08:08.801Z,0.18
2023-01-30T07:10:36.024Z,0.19
2023-01-30T07:13:03.730Z,0.19
2023-01-30T07:15:30.863Z,0.21
2023-01-30T07:17:57.470Z,0.19
2023-01-30T07:20:24.251Z,0.21
2023-01-30T07:22:55.478Z,0.22
2023-01-30T07:25:26.043Z,0.29
2023-01-30T07:27:53.599Z,0.25
2023-01-30T07:30:20.796Z,0.28
2023-01-30T07:32:51.638Z,0.27
2023-01-30T07:35:19.380Z,0.28
2023-01-30T07:37:50.451Z,0.28
2023-01-30T07:40:18.735Z,0.31
2023-01-30T07:42:56.943Z,0.34
2023-01-30T07:45:24.021Z,0.36
2023-01-30T07:47:50.767Z,0.37
2023-01-30T07:50:18.021Z,0.42
2023-01-30T07:52:45.003Z,0.43
2023-01-30T07:55:11.654Z,0.43
2023-01-30T07:57:38.209Z,0.42
2023-01-30T08:00:05.529Z,0.45
2023-01-30T08:02:32.112Z,0.44
2023-01-30T08:04:58.745Z,0.42
2023-01-30T08:07:25.372Z,0.42
2023-01-30T08:09:52.620Z,0.48
2023-01-30T08:12:19.242Z,0.48
2023-01-30T08:14:45.906Z,0.47
2023-01-30T08:17:12.799Z,0.49
2023-01-30T08:19:39.394Z,0.51
2023-01-30T08:22:05.971Z,0.55
2023-01-30T08:24:32.564Z,0.55
2023-01-30T08:27:00.348Z,0.55
2023-01-30T08:29:26.974Z,0.57
2023-01-30T08:31:57.904Z,0.53
2023-01-30T08:34:25.265Z,0.51
2023-01-30T08:36:52.134Z,0.53
2023-01-30T08:39:18.863Z,0.52
2023-01-30T08:41:45.530Z,0.55
2023-01-30T08:44:12.691Z,0.58
2023-01-30T08:46:40.041Z,0.57
2023-01-30T08:49:06.978Z,0.53
2023-01-30T08:51:33.787Z,0.58
2023-01-30T08:54:00.403Z,0.59
2023-01-30T08:56:27.052Z,0.65
2023-01-30T08:58:53.761Z,0.76
2023-01-30T09:01:20.447Z,0.93
2023-01-30T09:03:47.922Z,0.92
2023-01-30T09:06:14.594Z,0.95
2023-01-30T09:08:41.249Z,0.98
2023-01-30T09:11:07.927Z,0.99
2023-01-30T09:13:35.370Z,1.03
2023-01-30T09:16:02.331Z,1.08
2023-01-30T09:18:28.974Z,1.07
2023-01-30T09:21:03.644Z,1.08
2023-01-30T09:23:30.255Z,1.14
2023-01-30T09:25:56.930Z,1.16
2023-01-30T09:28:23.652Z,1.12
2023-01-30T09:30:50.342Z,1.11
2023-01-30T09:33:20.308Z,1.17
2023-01-30T09:35:48.334Z,1.18
2023-01-30T09:38:15.151Z,1.11
2023-01-30T09:41:16.466Z,1.08
2023-01-30T09:44:08.035Z,1.09
2023-01-30T09:46:34.738Z,1.13
2023-01-30T09:49:07.549Z,1.20
2023-01-30T09:51:48.181Z,1.19
2023-01-30T09:54:32.158Z,1.23
2023-01-30T09:57:21.646Z,1.32
2023-01-30T10:00:14.278Z,1.35
2023-01-30T10:03:08.671Z,1.36
2023-01-30T10:05:47.602Z,1.38
2023-01-30T10:08:35.640Z,1.36
2023-01-30T10:11:26.453Z,1.41
2023-01-30T10:14:30.825Z,1.44
2023-01-30T10:17:09.354Z,1.41
2023-01-30T10:19:50.294Z,1.45
2023-01-30T10:22:38.685Z,1.48
2023-01-30T10:25:27.953Z,1.51
2023-01-30T10:28:04.016Z,1.59
2023-01-30T10:30:31.053Z,1.60
2023-01-30T10:33:04.299Z,1.63
2023-01-30T10:35:42.958Z,1.58
2023-01-30T10:38:20.864Z,1.56
2023-01-30T10:40:59.338Z,1.54
2023-01-30T10:43:34.270Z,1.52
2023-01-30T10:46:10.243Z,1.51
2023-01-30T10:48:55.102Z,1.51
2023-01-30T10:51:47.764Z,1.55
2023-01-30T10:54:40.018Z,1.61
2023-01-30T10:57:32.268Z,1.65
2023-01-30T11:00:33.810Z,1.66
2023-01-30T11:03:18.385Z,1.66
2023-01-30T11:05:54.524Z,1.71
2023-01-30T11:08:33.499Z,1.72
2023-01-30T11:11:01.479Z,1.78
2023-01-30T11:13:33.521Z,1.80
2023-01-30T11:16:05.980Z,1.78
2023-01-30T11:19:17.822Z,1.75
2023-01-30T11:21:26.996Z,1.76
2023-01-30T11:24:04.782Z,1.85
2023-01-30T11:26:46.686Z,1.85
2023-01-30T11:29:29.851Z,1.88
2023-01-30T11:32:02.807Z,1.90
2023-01-30T11:34:29.699Z,1.93
2023-01-30T11:37:32.915Z,1.94
2023-01-30T11:39:59.668Z,2.05
2023-01-30T11:42:31.403Z,2.12
2023-01-30T11:45:17.337Z,2.10
2023-01-30T11:48:05.194Z,2.13
2023-01-30T11:50:46.848Z,2.28
2023-01-30T11:53:29.277Z,2.36
2023-01-30T11:56:06.458Z,2.46
2023-01-30T11:58:38.677Z,2.50
2023-01-30T12:01:07.513Z,2.49
2023-01-30T12:03:44.655Z,2.47
2023-01-30T12:06:11.734Z,2.49
2023-01-30T12:08:42.857Z,2.45
2023-01-30T12:11:50.431Z,2.44
2023-01-30T12:14:21.257Z,2.55
2023-01-30T12:17:35.275Z,2.54
2023-01-30T12:20:14.140Z,2.61
2023-01-30T12:22:46.875Z,2.70
2023-01-30T12:25:22.436Z,2.75
2023-01-30T12:28:02.133Z,2.70
2023-01-30T12:30:43.564Z,2.77
2023-01-30T12:33:15.691Z,2.90
2023-01-30T12:36:03.125Z,2.81
2023-01-30T12:38:47.686Z,2.83
2023-01-30T12:41:35.606Z,2.93
2023-01-30T12:44:39.451Z,3.02
2023-01-30T12:47:12.132Z,3.11
2023-01-30T12:50:00.175Z,3.16
2023-01-30T12:52:48.283Z,3.12
2023-01-30T12:55:35.688Z,3.14
2023-01-30T12:58:20.393Z,3.24
2023-01-30T13:01:05.471Z,3.30
2023-01-30T13:03:38.021Z,3.39
2023-01-30T13:06:11.330Z,3.45
2023-01-30T13:08:53.869Z,3.53
2023-01-30T13:11:58.281Z,3.59
2023-01-30T13:14:57.040Z,3.61
2023-01-30T13:17:55.827Z,3.67
2023-01-30T13:21:01.513Z,3.71
2023-01-30T13:23:37.020Z,3.70
2023-01-30T13:26:15.143Z,3.75
2023-01-30T13:28:51.351Z,3.82
2023-01-30T13:31:24.717Z,3.80
2023-01-30T13:34:10.319Z,3.77
2023-01-30T13:36:51.956Z,3.78
2023-01-30T13:39:30.539Z,3.83
2023-01-30T13:42:00.449Z,3.83
2023-01-30T13:44:32.820Z,3.89
2023-01-30T13:47:11.932Z,3.82
2023-01-30T13:49:56.954Z,3.79
2023-01-30T13:52:47.459Z,3.72
2023-01-30T13:55:26.034Z,3.73
2023-01-30T13:58:25.104Z,3.72
2023-01-30T14:00:54.378Z,3.70
2023-01-30T14:03:25.409Z,3.62
2023-01-30T14:05:52.086Z,3.57
2023-01-30T14:08:27.933Z,3.75
2023-01-30T14:10:56.302Z,3.86
2023-01-30T14:13:27.636Z,4.03
2023-01-30T14:15:57.945Z,4.20
2023-01-30T14:18:27.385Z,4.38
2023-01-30T14:21:11.642Z,4.56
2023-01-30T14:23:38.451Z,4.52
2023-01-30T14:26:05.081Z,4.50
2023-01-30T14:28:31.669Z,4.39
2023-01-30T14:31:03.431Z,4.39
2023-01-30T14:33:47.571Z,4.33
2023-01-30T14:36:14.137Z,4.28
2023-01-30T14:38:41.600Z,4.32
2023-01-30T14:41:37.441Z,4.30
2023-01-30T14:44:04.010Z,4.31
2023-01-30T14:46:30.686Z,4.33
2023-01-30T14:49:06.799Z,4.38
2023-01-30T14:51:39.367Z,4.40
2023-01-30T14:54:11.595Z,4.41
2023-01-30T14:57:08.120Z,4.40
2023-01-30T14:59:36.784Z,4.36
2023-01-30T15:02:12.461Z,4.40
2023-01-30T15:04:47.427Z,4.38
2023-01-30T15:07:47.309Z,4.29
2023-01-30T15:10:13.928Z,4.29
2023-01-30T15:12:43.215Z,4.19
2023-01-30T15:15:29.827Z,4.11
2023-01-30T15:18:21.815Z,4.14
2023-01-30T15:21:25.973Z,4.10
2023-01-30T15:23:59.595Z,4.09
2023-01-30T15:26:50.467Z,4.13
2023-01-30T15:29:49.231Z,4.10
2023-01-30T15:32:26.770Z,4.16
2023-01-30T15:35:01.200Z,4.17
2023-01-30T15:37:34.023Z,4.14
2023-01-30T15:40:15.673Z,4.13
2023-01-30T15:42:51.519Z,4.18
2023-01-30T15:45:24.748Z,4.27
2023-01-30T15:48:06.795Z,4.25
2023-01-30T15:50:33.540Z,4.17
2023-01-30T15:53:00.403Z,4.16
2023-01-30T15:55:28.522Z,4.16
2023-01-30T15:58:09.535Z,4.15
2023-01-30T16:00:39.579Z,4.16
2023-01-30T16:03:13.218Z,4.11
2023-01-30T16:05:51.290Z,4.07
2023-01-30T16:08:37.063Z,4.06
2023-01-30T16:11:03.751Z,4.03
2023-01-30T16:13:33.219Z,4.01
2023-01-30T16:16:12.817Z,3.99
2023-01-30T16:18:42.636Z,3.94
2023-01-30T16:21:25.727Z,3.82
2023-01-30T16:24:14.160Z,3.80
2023-01-30T16:26:44.723Z,3.71
2023-01-30T16:29:23.188Z,3.65
2023-01-30T16:31:52.814Z,3.64
2023-01-30T16:34:28.350Z,3.70
2023-01-30T16:36:55.916Z,3.58
2023-01-30T16:39:34.289Z,3.54
2023-01-30T16:42:04.168Z,3.59
2023-01-30T16:44:32.254Z,3.58
2023-01-30T16:47:25.496Z,3.52
2023-01-30T16:49:54.666Z,3.53
2023-01-30T16:52:31.079Z,3.45
2023-01-30T16:55:01.015Z,3.40
2023-01-30T16:57:37.709Z,3.39
2023-01-30T17:00:31.929Z,3.37
2023-01-30T17:03:01.995Z,3.34
2023-01-30T17:05:31.451Z,3.30
2023-01-30T17:07:58.252Z,3.25
2023-01-30T17:10:28.032Z,3.26
2023-01-30T17:12:55.812Z,3.23
2023-01-30T17:15:22.427Z,3.24
2023-01-30T17:17:49.030Z,3.19
2023-01-30T17:20:16.606Z,3.12
2023-01-30T17:22:46.526Z,3.15
2023-01-30T17:25:30.222Z,3.13
2023-01-30T17:27:58.108Z,3.12
2023-01-30T17:30:24.857Z,3.02
2023-01-30T17:32:51.503Z,3.01
2023-01-30T17:35:18.633Z,2.93
2023-01-30T17:37:53.404Z,2.96
2023-01-30T17:40:46.776Z,2.90
2023-01-30T17:43:13.570Z,2.77
2023-01-30T17:45:40.557Z,2.81
2023-01-30T17:48:07.608Z,2.82
2023-01-30T17:50:35.664Z,2.77
2023-01-30T17:53:02.675Z,2.77
2023-01-30T17:55:29.364Z,2.80
2023-01-30T17:57:56.584Z,2.82
2023-01-30T18:00:23.609Z,2.83
2023-01-30T18:02:50.290Z,2.77
2023-01-30T18:05:17.035Z,2.74
2023-01-30T18:07:44.262Z,2.72
2023-01-30T18:10:15.617Z,2.76
2023-01-30T18:12:42.759Z,2.74
2023-01-30T18:15:10.598Z,2.73
2023-01-30T18:17:46.070Z,2.71
2023-01-30T18:20:15.823Z,2.71
2023-01-30T18:22:42.518Z,2.65
2023-01-30T18:25:09.990Z,2.74
2023-01-30T18:27:36.772Z,2.74
2023-01-30T18:30:03.705Z,2.73
2023-01-30T18:32:31.956Z,2.80
2023-01-30T18:35:00.099Z,2.82
2023-01-30T18:37:26.750Z,2.87
2023-01-30T18:39:53.475Z,2.91
2023-01-30T18:42:20.237Z,2.88
2023-01-30T18:44:46.916Z,2.87
2023-01-30T18:47:13.694Z,2.90
2023-01-30T18:49:40.448Z,2.91
2023-01-30T18:52:07.132Z,2.85
2023-01-30T18:54:33.997Z,2.84
2023-01-30T18:57:00.629Z,2.88
2023-01-30T18:59:27.354Z,2.84
2023-01-30T19:01:54.000Z,2.93
2023-01-30T19:04:20.638Z,2.98
2023-01-30T19:06:47.272Z,2.94
2023-01-30T19:09:16.141Z,2.92
2023-01-30T19:12:01.576Z,2.96
2023-01-30T19:14:28.322Z,2.92
2023-01-30T19:16:55.037Z,2.89
2023-01-30T19:19:21.999Z,2.85
2023-01-30T19:21:49.903Z,2.89
2023-01-30T19:24:17.075Z,2.90
2023-01-30T19:26:44.145Z,2.92
2023-01-30T19:29:11.054Z,2.95
2023-01-30T19:31:37.907Z,3.06
2023-01-30T19:34:06.325Z,3.09
2023-01-30T19:36:34.767Z,3.07
2023-01-30T19:39:03.665Z,3.07
2023-01-30T19:41:33.251Z,3.06
2023-01-30T19:44:01.730Z,3.06
2023-01-30T19:46:29.334Z,3.03
2023-01-30T19:51:28.299Z,3.14
2023-01-30T19:53:57.038Z,3.17
2023-01-30T19:56:25.492Z,3.21
2023-01-30T19:58:55.064Z,3.16
2023-01-30T20:01:24.091Z,3.24
2023-01-30T20:03:51.329Z,3.25
2023-01-30T20:06:21.375Z,3.27
2023-01-30T20:08:50.350Z,3.28
2023-01-30T20:11:19.742Z,3.23
2023-01-30T20:13:46.323Z,3.21
2023-01-30T20:16:18.464Z,3.30
2023-01-30T20:18:48.304Z,3.36
2023-01-30T20:21:19.912Z,3.38
2023-01-30T20:23:47.704Z,3.40
2023-01-30T20:26:22.461Z,3.43
2023-01-30T20:28:49.700Z,3.38
2023-01-30T20:31:19.860Z,3.38
2023-01-30T20:33:47.448Z,3.32
2023-01-30T20:36:18.658Z,3.29
2023-01-30T20:38:47.099Z,3.31
2023-01-30T20:41:16.780Z,3.31
2023-01-30T20:43:45.987Z,3.39
2023-01-30T20:46:18.262Z,3.41
2023-01-30T20:48:45.673Z,3.42
2023-01-30T20:51:18.188Z,3.45
2023-01-30T20:53:59.555Z,3.44
2023-01-30T20:56:30.922Z,3.40
2023-01-30T20:58:57.769Z,3.42
2023-01-30T21:01:25.141Z,3.42
2023-01-30T21:03:53.595Z,3.43
2023-01-30T21:06:41.532Z,3.44
2023-01-30T21:09:18.498Z,3.40
2023-01-30T21:11:45.722Z,3.38
2023-01-30T21:14:13.146Z,3.39
2023-01-30T21:16:40.382Z,3.39
2023-01-30T21:19:09.971Z,3.41
2023-01-30T21:21:45.493Z,3.41
2023-01-30T21:24:14.139Z,3.44
2023-01-30T21:26:46.003Z,3.48
2023-01-30T21:29:15.538Z,3.43
2023-01-30T21:31:43.835Z,3.40
2023-01-30T21:34:11.218Z,3.38
2023-01-30T21:36:38.036Z,3.37
2023-01-30T21:39:23.215Z,3.33
2023-01-30T21:42:08.319Z,3.32
2023-01-30T21:44:40.967Z,3.29
2023-01-30T21:47:07.792Z,3.25
2023-01-30T21:49:34.853Z,3.28
2023-01-30T21:52:01.633Z,3.23
2023-01-30T21:54:28.407Z,3.20
2023-01-30T21:56:55.688Z,2.98
2023-01-30T21:59:22.398Z,2.88
2023-01-30T22:01:49.204Z,2.81
2023-01-30T22:04:16.400Z,2.74
2023-01-30T22:06:43.657Z,2.74
2023-01-30T22:09:14.229Z,2.64
2023-01-30T22:11:41.296Z,2.41
2023-01-30T22:14:08.021Z,2.31
2023-01-30T22:16:34.741Z,2.26
2023-01-30T22:19:04.034Z,2.31
2023-01-30T22:21:33.716Z,2.32
2023-01-30T22:24:02.327Z,2.33
2023-01-30T22:26:29.237Z,2.34
2023-01-30T22:28:57.434Z,2.36
2023-01-30T22:31:25.902Z,2.49
2023-01-30T22:33:55.000Z,2.55
2023-01-30T22:36:29.468Z,2.56
2023-01-30T22:38:56.269Z,2.62
2023-01-30T22:41:25.740Z,2.58
2023-01-30T22:43:55.388Z,2.62
2023-01-30T22:46:27.702Z,2.63
2023-01-30T22:48:54.874Z,2.62
2023-01-30T22:51:24.533Z,2.65
2023-01-30T22:54:05.671Z,2.64
2023-01-30T22:56:51.575Z,2.60
2023-01-30T22:59:18.237Z,2.55
2023-01-30T23:01:47.679Z,2.50
2023-01-30T23:04:22.679Z,2.53
2023-01-30T23:06:51.903Z,2.53
2023-01-30T23:09:21.302Z,2.48
2023-01-30T23:12:09.288Z,2.54
2023-01-30T23:14:36.891Z,2.61
2023-01-30T23:17:26.870Z,2.65
2023-01-30T23:19:56.699Z,2.64
2023-01-30T23:22:23.680Z,2.66
2023-01-30T23:24:51.492Z,2.65
2023-01-30T23:27:18.873Z,2.66
2023-01-30T23:29:45.494Z,2.64
2023-01-30T23:32:12.228Z,2.63
2023-01-30T23:34:39.060Z,2.64
2023-01-30T23:37:05.824Z,2.58
2023-01-30T23:39:32.422Z,2.59
2023-01-30T23:41:59.087Z,2.57
2023-01-30T23:44:25.692Z,2.61
2023-01-30T23:46:52.689Z,2.61
2023-01-30T23:49:19.371Z,2.61
2023-01-30T23:51:46.114Z,2.61
2023-01-30T23:54:13.945Z,2.59
2023-01-30T23:56:43.713Z,2.59
2023-01-30T23:59:11.298Z,2.59
